sensor_id;sensor_type;location;lat;lon;timestamp;temperature;humidity
48666;DHT22;34452;50.796;4.994;2023-02-22T00:00:10;5.40;99.90
48666;DHT22;34452;50.796;4.994;2023-02-22T00:02:45;5.30;99.90
48666;DHT22;34452;50.796;4.994;2023-02-22T00:05:13;5.30;99.90
48666;DHT22;34452;50.796;4.994;2023-02-22T00:07:42;5.30;99.90
48666;DHT22;34452;50.796;4.994;2023-02-22T00:10:09;5.30;99.90
48666;DHT22;34452;50.796;4.994;2023-02-22T00:12:40;5.30;99.90
48666;DHT22;34452;50.796;4.994;2023-02-22T00:15:06;5.30;99.90
48666;DHT22;34452;50.796;4.994;2023-02-22T00:17:32;5.40;99.90
48666;DHT22;34452;50.796;4.994;2023-02-22T00:19:58;5.30;99.90
48666;DHT22;34452;50.796;4.994;2023-02-22T00:22:24;5.30;99.90
48666;DHT22;34452;50.796;4.994;2023-02-22T00:24:49;5.40;99.90
48666;DHT22;34452;50.796;4.994;2023-02-22T00:27:15;5.30;99.90
48666;DHT22;34452;50.796;4.994;2023-02-22T00:29:54;5.20;99.90
48666;DHT22;34452;50.796;4.994;2023-02-22T00:32:21;5.10;99.90
48666;DHT22;34452;50.796;4.994;2023-02-22T00:34:50;5.10;99.90
48666;DHT22;34452;50.796;4.994;2023-02-22T00:37:16;5.10;99.90
48666;DHT22;34452;50.796;4.994;2023-02-22T00:39:46;4.90;99.90
48666;DHT22;34452;50.796;4.994;2023-02-22T00:42:12;4.90;99.90
48666;DHT22;34452;50.796;4.994;2023-02-22T00:44:38;4.90;99.90
48666;DHT22;34452;50.796;4.994;2023-02-22T00:47:04;4.90;99.90
48666;DHT22;34452;50.796;4.994;2023-02-22T00:49:30;4.90;99.90
48666;DHT22;34452;50.796;4.994;2023-02-22T00:51:55;4.90;99.90
48666;DHT22;34452;50.796;4.994;2023-02-22T00:54:21;4.80;99.90
48666;DHT22;34452;50.796;4.994;2023-02-22T00:56:47;4.90;99.90
48666;DHT22;34452;50.796;4.994;2023-02-22T00:59:15;4.90;99.90
48666;DHT22;34452;50.796;4.994;2023-02-22T01:01:41;4.80;99.90
48666;DHT22;34452;50.796;4.994;2023-02-22T01:04:08;4.80;99.90
48666;DHT22;34452;50.796;4.994;2023-02-22T01:06:34;4.80;99.90
48666;DHT22;34452;50.796;4.994;2023-02-22T01:09:01;4.80;99.90
48666;DHT22;34452;50.796;4.994;2023-02-22T01:11:27;4.80;99.90
48666;DHT22;34452;50.796;4.994;2023-02-22T01:13:53;4.70;99.90
48666;DHT22;34452;50.796;4.994;2023-02-22T01:16:19;4.60;99.90
48666;DHT22;34452;50.796;4.994;2023-02-22T01:18:45;4.70;99.90
48666;DHT22;34452;50.796;4.994;2023-02-22T01:21:11;4.60;99.90
48666;DHT22;34452;50.796;4.994;2023-02-22T01:23:37;4.60;99.90
48666;DHT22;34452;50.796;4.994;2023-02-22T01:26:02;4.60;99.90
48666;DHT22;34452;50.796;4.994;2023-02-22T01:28:30;4.50;99.90
48666;DHT22;34452;50.796;4.994;2023-02-22T01:30:56;4.50;99.90
48666;DHT22;34452;50.796;4.994;2023-02-22T01:33:22;4.60;99.90
48666;DHT22;34452;50.796;4.994;2023-02-22T01:35:48;4.60;99.90
48666;DHT22;34452;50.796;4.994;2023-02-22T01:38:15;4.50;99.90
48666;DHT22;34452;50.796;4.994;2023-02-22T01:40:42;4.50;99.90
48666;DHT22;34452;50.796;4.994;2023-02-22T01:43:24;4.30;99.90
48666;DHT22;34452;50.796;4.994;2023-02-22T01:46:01;4.40;99.90
48666;DHT22;34452;50.796;4.994;2023-02-22T01:48:41;4.30;99.90
48666;DHT22;34452;50.796;4.994;2023-02-22T01:54:17;4.30;99.90
48666;DHT22;34452;50.796;4.994;2023-02-22T01:56:51;4.20;99.90
48666;DHT22;34452;50.796;4.994;2023-02-22T01:59:20;4.20;99.90
48666;DHT22;34452;50.796;4.994;2023-02-22T02:01:47;4.10;99.90
48666;DHT22;34452;50.796;4.994;2023-02-22T02:04:17;4.20;99.90
48666;DHT22;34452;50.796;4.994;2023-02-22T02:06:44;4.20;99.90
48666;DHT22;34452;50.796;4.994;2023-02-22T02:09:13;4.30;99.90
48666;DHT22;34452;50.796;4.994;2023-02-22T02:11:41;4.20;99.90
48666;DHT22;34452;50.796;4.994;2023-02-22T02:14:08;4.10;99.90
48666;DHT22;34452;50.796;4.994;2023-02-22T02:16:39;4.20;99.90
48666;DHT22;34452;50.796;4.994;2023-02-22T02:19:37;4.20;99.90
48666;DHT22;34452;50.796;4.994;2023-02-22T02:22:17;4.20;99.90
48666;DHT22;34452;50.796;4.994;2023-02-22T02:25:07;4.20;99.90
48666;DHT22;34452;50.796;4.994;2023-02-22T02:30:36;4.20;99.90
48666;DHT22;34452;50.796;4.994;2023-02-22T02:41:31;3.80;99.90
48666;DHT22;34452;50.796;4.994;2023-02-22T02:44:23;3.80;99.90
48666;DHT22;34452;50.796;4.994;2023-02-22T02:49:46;3.80;99.90
48666;DHT22;34452;50.796;4.994;2023-02-22T02:52:17;3.80;99.90
48666;DHT22;34452;50.796;4.994;2023-02-22T02:54:45;3.70;99.90
48666;DHT22;34452;50.796;4.994;2023-02-22T02:57:11;3.70;99.90
48666;DHT22;34452;50.796;4.994;2023-02-22T02:59:37;3.70;99.90
48666;DHT22;34452;50.796;4.994;2023-02-22T03:02:09;3.70;99.90
48666;DHT22;34452;50.796;4.994;2023-02-22T03:04:43;3.70;99.90
48666;DHT22;34452;50.796;4.994;2023-02-22T03:27:07;3.50;99.90
48666;DHT22;34452;50.796;4.994;2023-02-22T03:29:38;3.50;99.90
48666;DHT22;34452;50.796;4.994;2023-02-22T03:32:09;3.50;99.90
48666;DHT22;34452;50.796;4.994;2023-02-22T03:34:42;3.50;99.90
48666;DHT22;34452;50.796;4.994;2023-02-22T03:37:16;3.50;99.90
48666;DHT22;34452;50.796;4.994;2023-02-22T03:39:43;3.50;99.90
48666;DHT22;34452;50.796;4.994;2023-02-22T03:42:15;3.50;99.90
48666;DHT22;34452;50.796;4.994;2023-02-22T03:44:44;3.50;99.90
48666;DHT22;34452;50.796;4.994;2023-02-22T03:47:13;3.50;99.90
48666;DHT22;34452;50.796;4.994;2023-02-22T03:52:33;3.50;99.90
48666;DHT22;34452;50.796;4.994;2023-02-22T03:55:00;3.50;99.90
48666;DHT22;34452;50.796;4.994;2023-02-22T03:57:31;3.50;99.90
48666;DHT22;34452;50.796;4.994;2023-02-22T03:59:58;3.50;99.90
48666;DHT22;34452;50.796;4.994;2023-02-22T04:02:24;3.50;99.90
48666;DHT22;34452;50.796;4.994;2023-02-22T04:04:50;3.50;99.90
48666;DHT22;34452;50.796;4.994;2023-02-22T04:07:16;3.60;99.90
48666;DHT22;34452;50.796;4.994;2023-02-22T04:09:42;3.60;99.90
48666;DHT22;34452;50.796;4.994;2023-02-22T04:12:07;3.60;99.90
48666;DHT22;34452;50.796;4.994;2023-02-22T04:14:33;3.60;99.90
48666;DHT22;34452;50.796;4.994;2023-02-22T04:16:59;3.60;99.90
48666;DHT22;34452;50.796;4.994;2023-02-22T04:19:25;3.60;99.90
48666;DHT22;34452;50.796;4.994;2023-02-22T04:21:51;3.60;99.90
48666;DHT22;34452;50.796;4.994;2023-02-22T04:24:17;3.60;99.90
48666;DHT22;34452;50.796;4.994;2023-02-22T04:26:42;3.60;99.90
48666;DHT22;34452;50.796;4.994;2023-02-22T04:29:08;3.60;99.90
48666;DHT22;34452;50.796;4.994;2023-02-22T04:31:34;3.60;99.90
48666;DHT22;34452;50.796;4.994;2023-02-22T04:34:00;3.60;99.90
48666;DHT22;34452;50.796;4.994;2023-02-22T04:36:27;3.60;99.90
48666;DHT22;34452;50.796;4.994;2023-02-22T04:38:56;3.60;99.90
48666;DHT22;34452;50.796;4.994;2023-02-22T04:41:22;3.50;99.90
48666;DHT22;34452;50.796;4.994;2023-02-22T04:43:48;3.50;99.90
48666;DHT22;34452;50.796;4.994;2023-02-22T04:46:14;3.50;99.90
48666;DHT22;34452;50.796;4.994;2023-02-22T04:48:39;3.60;99.90
48666;DHT22;34452;50.796;4.994;2023-02-22T04:51:05;3.50;99.90
48666;DHT22;34452;50.796;4.994;2023-02-22T04:53:32;3.50;99.90
48666;DHT22;34452;50.796;4.994;2023-02-22T04:55:58;3.60;99.90
48666;DHT22;34452;50.796;4.994;2023-02-22T04:58:24;3.60;99.90
48666;DHT22;34452;50.796;4.994;2023-02-22T05:00:49;3.50;99.90
48666;DHT22;34452;50.796;4.994;2023-02-22T05:03:15;3.60;99.90
48666;DHT22;34452;50.796;4.994;2023-02-22T05:05:41;3.60;99.90
48666;DHT22;34452;50.796;4.994;2023-02-22T05:08:06;3.60;99.90
48666;DHT22;34452;50.796;4.994;2023-02-22T05:10:32;3.50;99.90
48666;DHT22;34452;50.796;4.994;2023-02-22T05:12:58;3.60;99.90
48666;DHT22;34452;50.796;4.994;2023-02-22T05:15:24;3.60;99.90
48666;DHT22;34452;50.796;4.994;2023-02-22T05:17:51;3.60;99.90
48666;DHT22;34452;50.796;4.994;2023-02-22T05:20:35;3.60;99.90
48666;DHT22;34452;50.796;4.994;2023-02-22T05:23:01;3.60;99.90
48666;DHT22;34452;50.796;4.994;2023-02-22T05:25:27;3.60;99.90
48666;DHT22;34452;50.796;4.994;2023-02-22T05:27:56;3.60;99.90
48666;DHT22;34452;50.796;4.994;2023-02-22T05:30:25;3.60;99.90
48666;DHT22;34452;50.796;4.994;2023-02-22T05:32:51;3.60;99.90
48666;DHT22;34452;50.796;4.994;2023-02-22T05:35:21;3.60;99.90
48666;DHT22;34452;50.796;4.994;2023-02-22T05:37:47;3.60;99.90
48666;DHT22;34452;50.796;4.994;2023-02-22T05:40:17;3.60;99.90
48666;DHT22;34452;50.796;4.994;2023-02-22T05:42:43;3.70;99.90
48666;DHT22;34452;50.796;4.994;2023-02-22T05:45:11;3.60;99.90
48666;DHT22;34452;50.796;4.994;2023-02-22T05:47:37;3.60;99.90
48666;DHT22;34452;50.796;4.994;2023-02-22T05:50:03;3.60;99.90
48666;DHT22;34452;50.796;4.994;2023-02-22T05:52:29;3.60;99.90
48666;DHT22;34452;50.796;4.994;2023-02-22T05:54:55;3.60;99.90
48666;DHT22;34452;50.796;4.994;2023-02-22T05:57:21;3.60;99.90
48666;DHT22;34452;50.796;4.994;2023-02-22T05:59:46;3.60;99.90
48666;DHT22;34452;50.796;4.994;2023-02-22T06:02:12;3.60;99.90
48666;DHT22;34452;50.796;4.994;2023-02-22T06:04:38;3.50;99.90
48666;DHT22;34452;50.796;4.994;2023-02-22T06:07:04;3.50;99.90
48666;DHT22;34452;50.796;4.994;2023-02-22T06:09:30;3.50;99.90
48666;DHT22;34452;50.796;4.994;2023-02-22T06:11:56;3.50;99.90
48666;DHT22;34452;50.796;4.994;2023-02-22T06:14:22;3.50;99.90
48666;DHT22;34452;50.796;4.994;2023-02-22T06:17:00;3.40;99.90
48666;DHT22;34452;50.796;4.994;2023-02-22T06:19:27;3.30;99.90
48666;DHT22;34452;50.796;4.994;2023-02-22T06:21:55;3.30;99.90
48666;DHT22;34452;50.796;4.994;2023-02-22T06:24:22;3.20;99.90
48666;DHT22;34452;50.796;4.994;2023-02-22T06:27:04;3.20;99.90
48666;DHT22;34452;50.796;4.994;2023-02-22T06:29:30;3.20;99.90
48666;DHT22;34452;50.796;4.994;2023-02-22T06:31:55;3.30;99.90
48666;DHT22;34452;50.796;4.994;2023-02-22T06:34:21;3.30;99.90
48666;DHT22;34452;50.796;4.994;2023-02-22T06:36:47;3.30;99.90
48666;DHT22;34452;50.796;4.994;2023-02-22T06:39:15;3.20;99.90
48666;DHT22;34452;50.796;4.994;2023-02-22T06:41:42;3.30;99.90
48666;DHT22;34452;50.796;4.994;2023-02-22T06:44:09;3.30;99.90
48666;DHT22;34452;50.796;4.994;2023-02-22T06:46:35;3.30;99.90
48666;DHT22;34452;50.796;4.994;2023-02-22T06:49:01;3.30;99.90
48666;DHT22;34452;50.796;4.994;2023-02-22T06:51:27;3.30;99.90
48666;DHT22;34452;50.796;4.994;2023-02-22T06:53:54;3.30;99.90
48666;DHT22;34452;50.796;4.994;2023-02-22T06:56:19;3.40;99.90
48666;DHT22;34452;50.796;4.994;2023-02-22T06:58:45;3.40;99.90
48666;DHT22;34452;50.796;4.994;2023-02-22T07:01:11;3.50;99.90
48666;DHT22;34452;50.796;4.994;2023-02-22T07:03:37;3.40;99.90
48666;DHT22;34452;50.796;4.994;2023-02-22T07:06:03;3.50;99.90
48666;DHT22;34452;50.796;4.994;2023-02-22T07:08:29;3.50;99.90
48666;DHT22;34452;50.796;4.994;2023-02-22T07:10:55;3.50;99.90
48666;DHT22;34452;50.796;4.994;2023-02-22T07:13:21;3.50;99.90
48666;DHT22;34452;50.796;4.994;2023-02-22T07:15:47;3.50;99.90
48666;DHT22;34452;50.796;4.994;2023-02-22T07:18:12;3.50;99.90
48666;DHT22;34452;50.796;4.994;2023-02-22T07:20:38;3.50;99.90
48666;DHT22;34452;50.796;4.994;2023-02-22T07:23:05;3.60;99.90
48666;DHT22;34452;50.796;4.994;2023-02-22T07:25:30;3.60;99.90
48666;DHT22;34452;50.796;4.994;2023-02-22T07:27:56;3.60;99.90
48666;DHT22;34452;50.796;4.994;2023-02-22T07:30:41;3.60;99.90
48666;DHT22;34452;50.796;4.994;2023-02-22T07:33:09;3.60;99.90
48666;DHT22;34452;50.796;4.994;2023-02-22T07:35:38;3.60;99.90
48666;DHT22;34452;50.796;4.994;2023-02-22T07:38:05;3.60;99.90
48666;DHT22;34452;50.796;4.994;2023-02-22T07:40:32;3.70;99.90
48666;DHT22;34452;50.796;4.994;2023-02-22T07:43:28;3.70;99.90
48666;DHT22;34452;50.796;4.994;2023-02-22T07:45:56;3.70;99.90
48666;DHT22;34452;50.796;4.994;2023-02-22T07:48:25;3.70;99.90
48666;DHT22;34452;50.796;4.994;2023-02-22T07:50:50;3.70;99.90
48666;DHT22;34452;50.796;4.994;2023-02-22T07:53:21;3.80;99.90
48666;DHT22;34452;50.796;4.994;2023-02-22T07:55:47;3.80;99.90
48666;DHT22;34452;50.796;4.994;2023-02-22T07:58:16;3.80;99.90
48666;DHT22;34452;50.796;4.994;2023-02-22T08:00:42;3.80;99.90
48666;DHT22;34452;50.796;4.994;2023-02-22T08:03:11;3.80;99.90
48666;DHT22;34452;50.796;4.994;2023-02-22T08:05:39;3.90;99.90
48666;DHT22;34452;50.796;4.994;2023-02-22T08:08:06;4.00;99.90
48666;DHT22;34452;50.796;4.994;2023-02-22T08:10:32;4.00;99.90
48666;DHT22;34452;50.796;4.994;2023-02-22T08:12:59;4.10;99.90
48666;DHT22;34452;50.796;4.994;2023-02-22T08:15:28;4.30;99.90
48666;DHT22;34452;50.796;4.994;2023-02-22T08:17:55;4.40;99.90
48666;DHT22;34452;50.796;4.994;2023-02-22T08:20:21;4.50;99.90
48666;DHT22;34452;50.796;4.994;2023-02-22T08:22:47;4.60;99.90
48666;DHT22;34452;50.796;4.994;2023-02-22T08:25:15;4.80;99.90
48666;DHT22;34452;50.796;4.994;2023-02-22T08:27:41;4.90;99.90
48666;DHT22;34452;50.796;4.994;2023-02-22T08:32:47;5.20;99.90
48666;DHT22;34452;50.796;4.994;2023-02-22T08:35:14;5.30;99.90
48666;DHT22;34452;50.796;4.994;2023-02-22T08:37:43;5.40;99.90
48666;DHT22;34452;50.796;4.994;2023-02-22T08:40:09;5.50;99.90
48666;DHT22;34452;50.796;4.994;2023-02-22T08:42:35;5.60;99.90
48666;DHT22;34452;50.796;4.994;2023-02-22T08:45:00;5.70;99.90
48666;DHT22;34452;50.796;4.994;2023-02-22T08:47:26;5.70;99.90
48666;DHT22;34452;50.796;4.994;2023-02-22T08:49:52;5.80;99.90
48666;DHT22;34452;50.796;4.994;2023-02-22T08:52:19;5.90;99.90
48666;DHT22;34452;50.796;4.994;2023-02-22T08:54:46;6.10;99.90
48666;DHT22;34452;50.796;4.994;2023-02-22T08:57:12;6.20;99.90
48666;DHT22;34452;50.796;4.994;2023-02-22T08:59:38;6.30;99.90
48666;DHT22;34452;50.796;4.994;2023-02-22T09:02:03;6.40;99.90
48666;DHT22;34452;50.796;4.994;2023-02-22T09:04:29;6.50;99.90
48666;DHT22;34452;50.796;4.994;2023-02-22T09:06:55;6.60;99.90
48666;DHT22;34452;50.796;4.994;2023-02-22T09:09:21;6.80;99.90
48666;DHT22;34452;50.796;4.994;2023-02-22T09:11:47;7.00;99.90
48666;DHT22;34452;50.796;4.994;2023-02-22T09:14:13;7.20;99.90
48666;DHT22;34452;50.796;4.994;2023-02-22T09:16:42;7.30;99.90
48666;DHT22;34452;50.796;4.994;2023-02-22T09:19:07;7.50;99.90
48666;DHT22;34452;50.796;4.994;2023-02-22T09:21:33;7.60;99.90
48666;DHT22;34452;50.796;4.994;2023-02-22T09:23:59;7.70;99.90
48666;DHT22;34452;50.796;4.994;2023-02-22T09:26:33;7.80;99.90
48666;DHT22;34452;50.796;4.994;2023-02-22T09:28:59;7.90;99.90
48666;DHT22;34452;50.796;4.994;2023-02-22T09:31:24;8.10;99.90
48666;DHT22;34452;50.796;4.994;2023-02-22T09:33:51;8.20;99.90
48666;DHT22;34452;50.796;4.994;2023-02-22T09:36:17;8.30;99.90
48666;DHT22;34452;50.796;4.994;2023-02-22T09:38:42;8.40;99.90
48666;DHT22;34452;50.796;4.994;2023-02-22T09:41:27;8.60;99.90
48666;DHT22;34452;50.796;4.994;2023-02-22T09:44:15;8.70;99.90
48666;DHT22;34452;50.796;4.994;2023-02-22T09:46:44;8.80;99.90
48666;DHT22;34452;50.796;4.994;2023-02-22T09:49:31;9.00;99.90
48666;DHT22;34452;50.796;4.994;2023-02-22T09:52:00;9.10;99.90
48666;DHT22;34452;50.796;4.994;2023-02-22T09:57:24;9.30;99.90
48666;DHT22;34452;50.796;4.994;2023-02-22T10:00:01;9.40;99.90
48666;DHT22;34452;50.796;4.994;2023-02-22T10:05:27;9.50;99.90
48666;DHT22;34452;50.796;4.994;2023-02-22T10:08:01;9.60;99.90
48666;DHT22;34452;50.796;4.994;2023-02-22T10:10:34;9.60;99.90
48666;DHT22;34452;50.796;4.994;2023-02-22T10:19:05;9.80;99.90
48666;DHT22;34452;50.796;4.994;2023-02-22T10:27:41;10.10;99.90
48666;DHT22;34452;50.796;4.994;2023-02-22T10:30:28;10.20;99.90
48666;DHT22;34452;50.796;4.994;2023-02-22T10:35:44;10.40;99.90
48666;DHT22;34452;50.796;4.994;2023-02-22T10:38:11;10.40;99.90
48666;DHT22;34452;50.796;4.994;2023-02-22T10:40:43;10.40;99.90
48666;DHT22;34452;50.796;4.994;2023-02-22T10:43:10;10.40;99.90
48666;DHT22;34452;50.796;4.994;2023-02-22T10:45:36;10.40;99.90
48666;DHT22;34452;50.796;4.994;2023-02-22T10:48:06;10.40;99.90
48666;DHT22;34452;50.796;4.994;2023-02-22T10:50:36;10.50;99.90
48666;DHT22;34452;50.796;4.994;2023-02-22T10:53:04;10.50;99.90
48666;DHT22;34452;50.796;4.994;2023-02-22T10:55:30;10.50;99.90
48666;DHT22;34452;50.796;4.994;2023-02-22T10:58:08;10.50;99.90
48666;DHT22;34452;50.796;4.994;2023-02-22T11:00:38;10.50;99.90
48666;DHT22;34452;50.796;4.994;2023-02-22T11:03:25;10.40;99.90
48666;DHT22;34452;50.796;4.994;2023-02-22T11:05:52;10.40;99.90
48666;DHT22;34452;50.796;4.994;2023-02-22T11:08:34;10.30;99.90
48666;DHT22;34452;50.796;4.994;2023-02-22T11:11:01;10.30;99.90
48666;DHT22;34452;50.796;4.994;2023-02-22T11:13:33;10.30;99.90
48666;DHT22;34452;50.796;4.994;2023-02-22T11:16:18;10.20;99.90
48666;DHT22;34452;50.796;4.994;2023-02-22T11:18:46;10.20;99.90
48666;DHT22;34452;50.796;4.994;2023-02-22T11:21:12;10.20;99.90
48666;DHT22;34452;50.796;4.994;2023-02-22T11:23:42;10.20;99.90
48666;DHT22;34452;50.796;4.994;2023-02-22T11:26:12;10.20;99.90
48666;DHT22;34452;50.796;4.994;2023-02-22T11:28:51;10.20;99.90
48666;DHT22;34452;50.796;4.994;2023-02-22T11:31:25;10.30;99.90
48666;DHT22;34452;50.796;4.994;2023-02-22T11:33:56;10.20;99.90
48666;DHT22;34452;50.796;4.994;2023-02-22T11:36:41;10.20;99.90
48666;DHT22;34452;50.796;4.994;2023-02-22T11:41:50;10.20;99.90
48666;DHT22;34452;50.796;4.994;2023-02-22T11:44:34;10.20;99.90
48666;DHT22;34452;50.796;4.994;2023-02-22T11:47:01;10.20;99.90
48666;DHT22;34452;50.796;4.994;2023-02-22T11:49:42;10.10;99.90
48666;DHT22;34452;50.796;4.994;2023-02-22T11:52:21;10.10;99.90
48666;DHT22;34452;50.796;4.994;2023-02-22T11:57:44;10.10;99.90
48666;DHT22;34452;50.796;4.994;2023-02-22T12:00:16;10.10;99.90
48666;DHT22;34452;50.796;4.994;2023-02-22T12:08:51;10.30;99.90
48666;DHT22;34452;50.796;4.994;2023-02-22T12:17:13;10.40;99.90
48666;DHT22;34452;50.796;4.994;2023-02-22T12:20:00;10.40;99.90
48666;DHT22;34452;50.796;4.994;2023-02-22T12:22:33;10.30;99.90
48666;DHT22;34452;50.796;4.994;2023-02-22T12:25:04;10.30;99.90
48666;DHT22;34452;50.796;4.994;2023-02-22T12:27:38;10.30;99.90
48666;DHT22;34452;50.796;4.994;2023-02-22T12:30:14;10.30;99.90
48666;DHT22;34452;50.796;4.994;2023-02-22T12:32:45;10.30;99.90
48666;DHT22;34452;50.796;4.994;2023-02-22T12:35:15;10.30;99.90
48666;DHT22;34452;50.796;4.994;2023-02-22T12:38:14;10.30;99.90
48666;DHT22;34452;50.796;4.994;2023-02-22T12:40:49;10.30;99.90
48666;DHT22;34452;50.796;4.994;2023-02-22T12:48:52;10.40;99.90
48666;DHT22;34452;50.796;4.994;2023-02-22T12:51:26;10.50;99.90
48666;DHT22;34452;50.796;4.994;2023-02-22T12:57:02;10.60;99.90
48666;DHT22;34452;50.796;4.994;2023-02-22T12:59:34;10.60;99.90
48666;DHT22;34452;50.796;4.994;2023-02-22T13:02:13;10.60;99.90
48666;DHT22;34452;50.796;4.994;2023-02-22T13:04:40;10.70;99.90
48666;DHT22;34452;50.796;4.994;2023-02-22T13:13:15;10.90;99.90
48666;DHT22;34452;50.796;4.994;2023-02-22T13:28:59;11.30;99.90
48666;DHT22;34452;50.796;4.994;2023-02-22T13:35:00;11.20;99.90
48666;DHT22;34452;50.796;4.994;2023-02-22T13:37:52;11.20;99.90
48666;DHT22;34452;50.796;4.994;2023-02-22T13:48:55;11.00;99.90
48666;DHT22;34452;50.796;4.994;2023-02-22T13:56:52;10.90;99.90
48666;DHT22;34452;50.796;4.994;2023-02-22T13:59:32;10.90;99.90
48666;DHT22;34452;50.796;4.994;2023-02-22T14:02:00;10.90;99.90
48666;DHT22;34452;50.796;4.994;2023-02-22T14:09:42;10.90;99.90
48666;DHT22;34452;50.796;4.994;2023-02-22T14:15:15;10.90;99.90
48666;DHT22;34452;50.796;4.994;2023-02-22T14:20:29;10.90;99.90
48666;DHT22;34452;50.796;4.994;2023-02-22T14:23:24;10.90;99.90
48666;DHT22;34452;50.796;4.994;2023-02-22T14:25:44;10.90;99.90
48666;DHT22;34452;50.796;4.994;2023-02-22T14:28:50;10.90;99.90
48666;DHT22;34452;50.796;4.994;2023-02-22T14:31:21;10.90;99.90
48666;DHT22;34452;50.796;4.994;2023-02-22T14:34:07;10.90;99.90
48666;DHT22;34452;50.796;4.994;2023-02-22T14:41:34;11.00;99.90
48666;DHT22;34452;50.796;4.994;2023-02-22T14:44:03;11.00;99.90
48666;DHT22;34452;50.796;4.994;2023-02-22T14:46:33;10.90;99.90
48666;DHT22;34452;50.796;4.994;2023-02-22T14:49:03;10.90;99.90
48666;DHT22;34452;50.796;4.994;2023-02-22T14:51:37;10.90;99.90
48666;DHT22;34452;50.796;4.994;2023-02-22T14:54:24;10.90;99.90
48666;DHT22;34452;50.796;4.994;2023-02-22T14:57:21;10.90;99.90
48666;DHT22;34452;50.796;4.994;2023-02-22T15:00:05;10.80;99.90
48666;DHT22;34452;50.796;4.994;2023-02-22T15:02:46;10.80;99.90
48666;DHT22;34452;50.796;4.994;2023-02-22T15:05:15;10.70;99.90
48666;DHT22;34452;50.796;4.994;2023-02-22T15:08:03;10.70;99.90
48666;DHT22;34452;50.796;4.994;2023-02-22T15:10:40;10.70;99.90
48666;DHT22;34452;50.796;4.994;2023-02-22T15:13:24;10.70;99.90
48666;DHT22;34452;50.796;4.994;2023-02-22T15:16:03;10.70;99.90
48666;DHT22;34452;50.796;4.994;2023-02-22T15:18:38;10.70;99.90
48666;DHT22;34452;50.796;4.994;2023-02-22T15:21:10;10.70;99.90
48666;DHT22;34452;50.796;4.994;2023-02-22T15:23:44;10.70;99.90
48666;DHT22;34452;50.796;4.994;2023-02-22T15:26:38;10.70;99.90
48666;DHT22;34452;50.796;4.994;2023-02-22T15:29:18;10.70;99.90
48666;DHT22;34452;50.796;4.994;2023-02-22T15:31:44;10.70;99.90
48666;DHT22;34452;50.796;4.994;2023-02-22T15:34:27;10.70;99.90
48666;DHT22;34452;50.796;4.994;2023-02-22T15:36:55;10.70;99.90
48666;DHT22;34452;50.796;4.994;2023-02-22T15:39:34;10.70;99.90
48666;DHT22;34452;50.796;4.994;2023-02-22T15:42:09;10.60;99.90
48666;DHT22;34452;50.796;4.994;2023-02-22T15:44:44;10.60;99.90
48666;DHT22;34452;50.796;4.994;2023-02-22T15:47:17;10.60;99.90
48666;DHT22;34452;50.796;4.994;2023-02-22T15:49:43;10.60;99.90
48666;DHT22;34452;50.796;4.994;2023-02-22T15:52:18;10.60;99.90
48666;DHT22;34452;50.796;4.994;2023-02-22T15:54:48;10.60;99.90
48666;DHT22;34452;50.796;4.994;2023-02-22T15:57:17;10.60;99.90
48666;DHT22;34452;50.796;4.994;2023-02-22T15:59:50;10.60;99.90
48666;DHT22;34452;50.796;4.994;2023-02-22T16:02:32;10.60;99.90
48666;DHT22;34452;50.796;4.994;2023-02-22T16:05:06;10.60;99.90
48666;DHT22;34452;50.796;4.994;2023-02-22T16:07:37;10.50;99.90
48666;DHT22;34452;50.796;4.994;2023-02-22T16:10:03;10.50;99.90
48666;DHT22;34452;50.796;4.994;2023-02-22T16:12:34;10.50;99.90
48666;DHT22;34452;50.796;4.994;2023-02-22T16:15:00;10.50;99.90
48666;DHT22;34452;50.796;4.994;2023-02-22T16:17:35;10.50;99.90
48666;DHT22;34452;50.796;4.994;2023-02-22T16:22:48;10.50;99.90
48666;DHT22;34452;50.796;4.994;2023-02-22T16:25:25;10.40;99.90
48666;DHT22;34452;50.796;4.994;2023-02-22T16:27:55;10.50;99.90
48666;DHT22;34452;50.796;4.994;2023-02-22T16:33:12;10.40;99.90
48666;DHT22;34452;50.796;4.994;2023-02-22T16:35:41;10.40;99.90
48666;DHT22;34452;50.796;4.994;2023-02-22T16:38:17;10.40;99.90
48666;DHT22;34452;50.796;4.994;2023-02-22T16:41:02;10.30;99.90
48666;DHT22;34452;50.796;4.994;2023-02-22T16:43:29;10.30;99.90
48666;DHT22;34452;50.796;4.994;2023-02-22T16:45:58;10.30;99.90
48666;DHT22;34452;50.796;4.994;2023-02-22T16:48:44;10.30;99.90
48666;DHT22;34452;50.796;4.994;2023-02-22T16:51:32;10.20;99.90
48666;DHT22;34452;50.796;4.994;2023-02-22T16:54:04;10.20;99.90
48666;DHT22;34452;50.796;4.994;2023-02-22T16:56:30;10.10;99.90
48666;DHT22;34452;50.796;4.994;2023-02-22T16:58:59;10.10;99.90
48666;DHT22;34452;50.796;4.994;2023-02-22T17:01:25;10.10;99.90
48666;DHT22;34452;50.796;4.994;2023-02-22T17:03:51;10.10;99.90
48666;DHT22;34452;50.796;4.994;2023-02-22T17:06:19;10.10;99.90
48666;DHT22;34452;50.796;4.994;2023-02-22T17:08:45;10.10;99.90
48666;DHT22;34452;50.796;4.994;2023-02-22T17:11:12;10.00;99.90
48666;DHT22;34452;50.796;4.994;2023-02-22T17:13:38;10.00;99.90
48666;DHT22;34452;50.796;4.994;2023-02-22T17:16:05;10.00;99.90
48666;DHT22;34452;50.796;4.994;2023-02-22T17:18:31;10.00;99.90
48666;DHT22;34452;50.796;4.994;2023-02-22T17:21:00;10.00;99.90
48666;DHT22;34452;50.796;4.994;2023-02-22T17:23:27;10.00;99.90
48666;DHT22;34452;50.796;4.994;2023-02-22T17:25:56;9.90;99.90
48666;DHT22;34452;50.796;4.994;2023-02-22T17:28:24;9.90;99.90
48666;DHT22;34452;50.796;4.994;2023-02-22T17:30:52;9.90;99.90
48666;DHT22;34452;50.796;4.994;2023-02-22T17:33:21;9.90;99.90
48666;DHT22;34452;50.796;4.994;2023-02-22T17:35:51;9.90;99.90
48666;DHT22;34452;50.796;4.994;2023-02-22T17:38:18;9.90;99.90
48666;DHT22;34452;50.796;4.994;2023-02-22T17:40:46;9.90;99.90
48666;DHT22;34452;50.796;4.994;2023-02-22T17:43:13;9.90;99.90
48666;DHT22;34452;50.796;4.994;2023-02-22T17:45:40;9.90;99.90
48666;DHT22;34452;50.796;4.994;2023-02-22T17:48:07;9.90;99.90
48666;DHT22;34452;50.796;4.994;2023-02-22T17:50:49;9.90;99.90
48666;DHT22;34452;50.796;4.994;2023-02-22T17:53:15;9.90;99.90
48666;DHT22;34452;50.796;4.994;2023-02-22T17:55:46;9.90;99.90
48666;DHT22;34452;50.796;4.994;2023-02-22T17:58:12;9.80;99.90
48666;DHT22;34452;50.796;4.994;2023-02-22T18:00:41;9.90;99.90
48666;DHT22;34452;50.796;4.994;2023-02-22T18:03:19;9.90;99.90
48666;DHT22;34452;50.796;4.994;2023-02-22T18:05:50;9.90;99.90
48666;DHT22;34452;50.796;4.994;2023-02-22T18:08:17;9.90;99.90
48666;DHT22;34452;50.796;4.994;2023-02-22T18:10:43;9.90;99.90
48666;DHT22;34452;50.796;4.994;2023-02-22T18:13:14;9.90;99.90
48666;DHT22;34452;50.796;4.994;2023-02-22T18:15:42;9.90;99.90
48666;DHT22;34452;50.796;4.994;2023-02-22T18:18:08;9.90;99.90
48666;DHT22;34452;50.796;4.994;2023-02-22T18:20:34;9.90;99.90
48666;DHT22;34452;50.796;4.994;2023-02-22T18:23:18;9.90;99.90
48666;DHT22;34452;50.796;4.994;2023-02-22T18:25:46;9.90;99.90